sensor_id;sensor_type;location;lat;lon;timestamp;P1;durP1;ratioP1;P2;durP2;ratioP2
6109;SDS011;3085;49.444;11.054;2023-06-10T00:01:37;13.07;;;4.67;;
6109;SDS011;3085;49.444;11.054;2023-06-10T00:04:05;7.10;;;4.43;;
6109;SDS011;3085;49.444;11.054;2023-06-10T00:06:33;5.37;;;3.63;;
6109;SDS011;3085;49.444;11.054;2023-06-10T00:09:02;7.43;;;5.00;;
6109;SDS011;3085;49.444;11.054;2023-06-10T00:11:30;21.37;;;4.70;;
6109;SDS011;3085;49.444;11.054;2023-06-10T00:13:57;6.10;;;4.00;;
6109;SDS011;3085;49.444;11.054;2023-06-10T00:16:25;5.60;;;3.90;;
6109;SDS011;3085;49.444;11.054;2023-06-10T00:18:52;7.93;;;3.90;;
6109;SDS011;3085;49.444;11.054;2023-06-10T00:21:22;7.07;;;4.60;;
6109;SDS011;3085;49.444;11.054;2023-06-10T00:23:49;7.03;;;4.00;;
6109;SDS011;3085;49.444;11.054;2023-06-10T00:26:16;7.27;;;4.03;;
6109;SDS011;3085;49.444;11.054;2023-06-10T00:28:43;5.07;;;3.93;;
6109;SDS011;3085;49.444;11.054;2023-06-10T00:31:11;5.70;;;3.93;;
6109;SDS011;3085;49.444;11.054;2023-06-10T00:33:38;7.87;;;4.37;;
6109;SDS011;3085;49.444;11.054;2023-06-10T00:36:04;6.30;;;3.90;;
6109;SDS011;3085;49.444;11.054;2023-06-10T00:38:33;11.90;;;4.13;;
6109;SDS011;3085;49.444;11.054;2023-06-10T00:40:59;8.40;;;4.10;;
6109;SDS011;3085;49.444;11.054;2023-06-10T00:43:26;7.00;;;3.83;;
6109;SDS011;3085;49.444;11.054;2023-06-10T00:45:53;4.97;;;3.90;;
6109;SDS011;3085;49.444;11.054;2023-06-10T00:48:20;6.60;;;4.23;;
6109;SDS011;3085;49.444;11.054;2023-06-10T00:50:47;5.20;;;3.70;;
6109;SDS011;3085;49.444;11.054;2023-06-10T00:53:15;6.93;;;3.77;;
6109;SDS011;3085;49.444;11.054;2023-06-10T00:55:43;8.17;;;4.10;;
6109;SDS011;3085;49.444;11.054;2023-06-10T00:58:10;6.50;;;4.10;;
6109;SDS011;3085;49.444;11.054;2023-06-10T01:00:38;5.90;;;4.10;;
6109;SDS011;3085;49.444;11.054;2023-06-10T01:03:05;8.07;;;4.23;;
6109;SDS011;3085;49.444;11.054;2023-06-10T01:05:32;5.00;;;3.50;;
6109;SDS011;3085;49.444;11.054;2023-06-10T01:08:03;5.27;;;3.77;;
6109;SDS011;3085;49.444;11.054;2023-06-10T01:10:33;6.17;;;3.97;;
6109;SDS011;3085;49.444;11.054;2023-06-10T01:13:06;7.43;;;4.43;;
6109;SDS011;3085;49.444;11.054;2023-06-10T01:15:36;7.20;;;3.87;;
6109;SDS011;3085;49.444;11.054;2023-06-10T01:18:04;5.53;;;3.83;;
6109;SDS011;3085;49.444;11.054;2023-06-10T01:20:33;5.60;;;3.50;;
6109;SDS011;3085;49.444;11.054;2023-06-10T01:23:06;5.03;;;3.37;;
6109;SDS011;3085;49.444;11.054;2023-06-10T01:25:35;10.90;;;4.93;;
6109;SDS011;3085;49.444;11.054;2023-06-10T01:28:04;8.73;;;5.23;;
6109;SDS011;3085;49.444;11.054;2023-06-10T01:30:40;8.23;;;4.50;;
6109;SDS011;3085;49.444;11.054;2023-06-10T01:33:12;6.23;;;4.30;;
6109;SDS011;3085;49.444;11.054;2023-06-10T01:35:40;7.20;;;4.83;;
6109;SDS011;3085;49.444;11.054;2023-06-10T01:38:11;9.23;;;4.30;;
6109;SDS011;3085;49.444;11.054;2023-06-10T01:40:40;8.20;;;4.20;;
6109;SDS011;3085;49.444;11.054;2023-06-10T01:43:08;6.30;;;4.43;;
6109;SDS011;3085;49.444;11.054;2023-06-10T01:45:35;7.57;;;5.00;;
6109;SDS011;3085;49.444;11.054;2023-06-10T01:48:02;8.23;;;4.70;;
6109;SDS011;3085;49.444;11.054;2023-06-10T01:50:29;8.53;;;4.67;;
6109;SDS011;3085;49.444;11.054;2023-06-10T01:52:56;7.03;;;4.30;;
6109;SDS011;3085;49.444;11.054;2023-06-10T01:55:24;12.13;;;4.57;;
6109;SDS011;3085;49.444;11.054;2023-06-10T01:57:51;8.27;;;4.57;;
6109;SDS011;3085;49.444;11.054;2023-06-10T02:00:18;9.13;;;4.80;;
6109;SDS011;3085;49.444;11.054;2023-06-10T02:02:45;6.30;;;5.07;;
6109;SDS011;3085;49.444;11.054;2023-06-10T02:05:12;8.10;;;4.70;;
6109;SDS011;3085;49.444;11.054;2023-06-10T02:07:39;8.90;;;4.80;;
6109;SDS011;3085;49.444;11.054;2023-06-10T02:10:06;12.17;;;4.80;;
6109;SDS011;3085;49.444;11.054;2023-06-10T02:12:35;8.47;;;5.40;;
6109;SDS011;3085;49.444;11.054;2023-06-10T02:15:02;8.43;;;4.90;;
6109;SDS011;3085;49.444;11.054;2023-06-10T02:17:29;7.27;;;4.80;;
6109;SDS011;3085;49.444;11.054;2023-06-10T02:19:57;8.93;;;4.50;;
6109;SDS011;3085;49.444;11.054;2023-06-10T02:22:25;9.10;;;5.13;;
6109;SDS011;3085;49.444;11.054;2023-06-10T02:24:52;10.33;;;5.20;;
6109;SDS011;3085;49.444;11.054;2023-06-10T02:27:18;11.83;;;5.27;;
6109;SDS011;3085;49.444;11.054;2023-06-10T02:29:47;8.63;;;5.37;;
6109;SDS011;3085;49.444;11.054;2023-06-10T02:32:14;6.00;;;4.53;;
6109;SDS011;3085;49.444;11.054;2023-06-10T02:34:41;7.10;;;5.20;;
6109;SDS011;3085;49.444;11.054;2023-06-10T02:37:08;7.77;;;5.33;;
6109;SDS011;3085;49.444;11.054;2023-06-10T02:39:35;9.43;;;4.93;;
6109;SDS011;3085;49.444;11.054;2023-06-10T02:42:03;8.83;;;4.87;;
6109;SDS011;3085;49.444;11.054;2023-06-10T02:44:30;8.60;;;5.00;;
6109;SDS011;3085;49.444;11.054;2023-06-10T02:46:59;7.87;;;5.03;;
6109;SDS011;3085;49.444;11.054;2023-06-10T02:49:26;7.43;;;4.87;;
6109;SDS011;3085;49.444;11.054;2023-06-10T02:51:53;7.90;;;4.27;;
6109;SDS011;3085;49.444;11.054;2023-06-10T02:54:21;8.53;;;5.27;;
6109;SDS011;3085;49.444;11.054;2023-06-10T02:56:48;6.43;;;4.53;;
6109;SDS011;3085;49.444;11.054;2023-06-10T02:59:15;8.83;;;5.07;;
6109;SDS011;3085;49.444;11.054;2023-06-10T03:01:42;8.93;;;5.10;;
6109;SDS011;3085;49.444;11.054;2023-06-10T03:04:11;9.13;;;4.90;;
6109;SDS011;3085;49.444;11.054;2023-06-10T03:06:38;9.10;;;5.20;;
6109;SDS011;3085;49.444;11.054;2023-06-10T03:09:07;6.63;;;4.50;;
6109;SDS011;3085;49.444;11.054;2023-06-10T03:11:34;9.37;;;5.57;;
6109;SDS011;3085;49.444;11.054;2023-06-10T03:14:01;6.83;;;4.57;;
6109;SDS011;3085;49.444;11.054;2023-06-10T03:16:28;8.97;;;5.53;;
6109;SDS011;3085;49.444;11.054;2023-06-10T03:18:56;7.73;;;4.90;;
6109;SDS011;3085;49.444;11.054;2023-06-10T03:21:24;9.40;;;5.30;;
6109;SDS011;3085;49.444;11.054;2023-06-10T03:23:52;9.27;;;4.47;;
6109;SDS011;3085;49.444;11.054;2023-06-10T03:26:18;7.70;;;4.97;;
6109;SDS011;3085;49.444;11.054;2023-06-10T03:28:46;9.70;;;5.97;;
6109;SDS011;3085;49.444;11.054;2023-06-10T03:31:13;8.40;;;5.30;;
6109;SDS011;3085;49.444;11.054;2023-06-10T03:33:42;10.80;;;5.67;;
6109;SDS011;3085;49.444;11.054;2023-06-10T03:36:09;9.77;;;5.53;;
6109;SDS011;3085;49.444;11.054;2023-06-10T03:38:37;11.20;;;7.17;;
6109;SDS011;3085;49.444;11.054;2023-06-10T03:41:04;10.50;;;5.53;;
6109;SDS011;3085;49.444;11.054;2023-06-10T03:43:31;8.80;;;4.90;;
6109;SDS011;3085;49.444;11.054;2023-06-10T03:45:58;9.37;;;5.37;;
6109;SDS011;3085;49.444;11.054;2023-06-10T03:48:25;6.50;;;4.63;;
6109;SDS011;3085;49.444;11.054;2023-06-10T03:50:52;8.30;;;5.57;;
6109;SDS011;3085;49.444;11.054;2023-06-10T03:53:19;8.77;;;4.83;;
6109;SDS011;3085;49.444;11.054;2023-06-10T03:55:48;11.40;;;5.77;;
6109;SDS011;3085;49.444;11.054;2023-06-10T03:58:15;8.53;;;6.33;;
6109;SDS011;3085;49.444;11.054;2023-06-10T04:00:43;6.23;;;4.47;;
6109;SDS011;3085;49.444;11.054;2023-06-10T04:03:10;10.50;;;4.90;;
6109;SDS011;3085;49.444;11.054;2023-06-10T04:05:39;10.60;;;5.53;;
6109;SDS011;3085;49.444;11.054;2023-06-10T04:08:06;12.90;;;6.03;;
6109;SDS011;3085;49.444;11.054;2023-06-10T04:10:33;8.63;;;4.90;;
6109;SDS011;3085;49.444;11.054;2023-06-10T04:13:02;10.47;;;6.70;;
6109;SDS011;3085;49.444;11.054;2023-06-10T04:15:30;10.13;;;6.00;;
6109;SDS011;3085;49.444;11.054;2023-06-10T04:17:58;6.77;;;5.03;;
6109;SDS011;3085;49.444;11.054;2023-06-10T04:20:26;8.83;;;5.60;;
6109;SDS011;3085;49.444;11.054;2023-06-10T04:22:53;10.47;;;6.60;;
6109;SDS011;3085;49.444;11.054;2023-06-10T04:25:20;12.07;;;6.07;;
6109;SDS011;3085;49.444;11.054;2023-06-10T04:27:47;9.43;;;5.60;;
6109;SDS011;3085;49.444;11.054;2023-06-10T04:30:15;8.20;;;5.53;;
6109;SDS011;3085;49.444;11.054;2023-06-10T04:32:42;8.50;;;5.53;;
6109;SDS011;3085;49.444;11.054;2023-06-10T04:35:11;10.27;;;5.53;;
6109;SDS011;3085;49.444;11.054;2023-06-10T04:37:39;12.07;;;5.37;;
6109;SDS011;3085;49.444;11.054;2023-06-10T04:40:06;9.33;;;5.83;;
6109;SDS011;3085;49.444;11.054;2023-06-10T04:42:35;8.10;;;4.90;;
6109;SDS011;3085;49.444;11.054;2023-06-10T04:45:03;9.73;;;5.20;;
6109;SDS011;3085;49.444;11.054;2023-06-10T04:47:32;8.10;;;5.30;;
6109;SDS011;3085;49.444;11.054;2023-06-10T04:49:59;11.00;;;6.30;;
6109;SDS011;3085;49.444;11.054;2023-06-10T04:52:26;8.60;;;5.50;;
6109;SDS011;3085;49.444;11.054;2023-06-10T04:54:53;11.07;;;6.23;;
6109;SDS011;3085;49.444;11.054;2023-06-10T04:57:20;6.90;;;4.77;;
6109;SDS011;3085;49.444;11.054;2023-06-10T04:59:47;8.87;;;4.63;;
6109;SDS011;3085;49.444;11.054;2023-06-10T05:02:14;8.00;;;5.50;;
6109;SDS011;3085;49.444;11.054;2023-06-10T05:04:42;12.60;;;5.80;;
6109;SDS011;3085;49.444;11.054;2023-06-10T05:07:08;10.77;;;5.87;;
6109;SDS011;3085;49.444;11.054;2023-06-10T05:09:35;11.07;;;5.57;;
6109;SDS011;3085;49.444;11.054;2023-06-10T05:12:02;12.43;;;4.70;;
6109;SDS011;3085;49.444;11.054;2023-06-10T05:14:29;7.63;;;4.70;;
6109;SDS011;3085;49.444;11.054;2023-06-10T05:16:56;6.37;;;4.30;;
6109;SDS011;3085;49.444;11.054;2023-06-10T05:19:23;10.03;;;5.37;;
6109;SDS011;3085;49.444;11.054;2023-06-10T05:21:51;9.50;;;5.00;;
6109;SDS011;3085;49.444;11.054;2023-06-10T05:24:18;9.20;;;5.43;;
6109;SDS011;3085;49.444;11.054;2023-06-10T05:26:45;8.77;;;5.10;;
6109;SDS011;3085;49.444;11.054;2023-06-10T05:29:13;9.03;;;5.27;;
6109;SDS011;3085;49.444;11.054;2023-06-10T05:31:41;11.90;;;5.50;;
6109;SDS011;3085;49.444;11.054;2023-06-10T05:34:08;8.83;;;4.97;;
6109;SDS011;3085;49.444;11.054;2023-06-10T05:36:34;7.07;;;5.20;;
6109;SDS011;3085;49.444;11.054;2023-06-10T05:39:02;10.67;;;5.40;;
6109;SDS011;3085;49.444;11.054;2023-06-10T05:41:29;6.73;;;4.80;;
6109;SDS011;3085;49.444;11.054;2023-06-10T05:43:56;8.20;;;5.03;;
6109;SDS011;3085;49.444;11.054;2023-06-10T05:46:23;9.33;;;5.63;;
6109;SDS011;3085;49.444;11.054;2023-06-10T05:48:49;17.10;;;4.90;;
6109;SDS011;3085;49.444;11.054;2023-06-10T05:51:16;10.83;;;5.53;;
6109;SDS011;3085;49.444;11.054;2023-06-10T05:53:43;11.20;;;5.77;;
6109;SDS011;3085;49.444;11.054;2023-06-10T05:56:12;12.03;;;6.53;;
6109;SDS011;3085;49.444;11.054;2023-06-10T05:58:39;7.20;;;4.83;;
6109;SDS011;3085;49.444;11.054;2023-06-10T06:01:06;8.23;;;5.23;;
6109;SDS011;3085;49.444;11.054;2023-06-10T06:03:33;8.90;;;5.63;;
6109;SDS011;3085;49.444;11.054;2023-06-10T06:05:59;7.97;;;5.27;;
6109;SDS011;3085;49.444;11.054;2023-06-10T06:08:26;9.17;;;6.20;;
6109;SDS011;3085;49.444;11.054;2023-06-10T06:10:53;8.37;;;5.60;;
6109;SDS011;3085;49.444;11.054;2023-06-10T06:13:21;12.47;;;5.73;;
6109;SDS011;3085;49.444;11.054;2023-06-10T06:15:48;7.93;;;5.10;;
6109;SDS011;3085;49.444;11.054;2023-06-10T06:18:15;8.07;;;5.20;;
6109;SDS011;3085;49.444;11.054;2023-06-10T06:20:43;9.90;;;5.20;;
6109;SDS011;3085;49.444;11.054;2023-06-10T06:23:10;10.13;;;5.83;;
6109;SDS011;3085;49.444;11.054;2023-06-10T06:25:37;7.03;;;4.47;;
6109;SDS011;3085;49.444;11.054;2023-06-10T06:28:04;7.97;;;4.90;;
6109;SDS011;3085;49.444;11.054;2023-06-10T06:30:33;9.03;;;5.33;;
6109;SDS011;3085;49.444;11.054;2023-06-10T06:32:59;8.50;;;5.63;;
6109;SDS011;3085;49.444;11.054;2023-06-10T06:35:26;11.33;;;4.87;;
6109;SDS011;3085;49.444;11.054;2023-06-10T06:37:53;8.97;;;5.20;;
6109;SDS011;3085;49.444;11.054;2023-06-10T06:40:19;14.30;;;5.23;;
6109;SDS011;3085;49.444;11.054;2023-06-10T06:42:46;7.20;;;4.30;;
6109;SDS011;3085;49.444;11.054;2023-06-10T06:45:13;6.70;;;4.13;;
6109;SDS011;3085;49.444;11.054;2023-06-10T06:47:41;7.37;;;5.07;;
6109;SDS011;3085;49.444;11.054;2023-06-10T06:50:08;8.10;;;4.97;;
6109;SDS011;3085;49.444;11.054;2023-06-10T06:52:35;6.70;;;4.17;;
6109;SDS011;3085;49.444;11.054;2023-06-10T06:55:02;8.43;;;5.30;;
6109;SDS011;3085;49.444;11.054;2023-06-10T06:57:30;8.07;;;5.67;;
6109;SDS011;3085;49.444;11.054;2023-06-10T06:59:56;7.50;;;4.70;;
6109;SDS011;3085;49.444;11.054;2023-06-10T07:02:24;7.73;;;4.67;;
6109;SDS011;3085;49.444;11.054;2023-06-10T07:04:52;8.07;;;5.07;;
6109;SDS011;3085;49.444;11.054;2023-06-10T07:07:21;6.00;;;4.30;;
6109;SDS011;3085;49.444;11.054;2023-06-10T07:09:47;9.33;;;5.07;;
6109;SDS011;3085;49.444;11.054;2023-06-10T07:12:14;8.23;;;4.90;;
6109;SDS011;3085;49.444;11.054;2023-06-10T07:14:42;8.80;;;4.77;;
6109;SDS011;3085;49.444;11.054;2023-06-10T07:17:09;7.20;;;4.80;;
6109;SDS011;3085;49.444;11.054;2023-06-10T07:19:36;7.80;;;3.93;;
6109;SDS011;3085;49.444;11.054;2023-06-10T07:22:04;8.70;;;4.37;;
6109;SDS011;3085;49.444;11.054;2023-06-10T07:24:32;4.70;;;4.00;;
6109;SDS011;3085;49.444;11.054;2023-06-10T07:26:58;8.13;;;5.17;;
6109;SDS011;3085;49.444;11.054;2023-06-10T07:29:25;8.00;;;4.43;;
6109;SDS011;3085;49.444;11.054;2023-06-10T07:31:52;9.77;;;4.43;;
6109;SDS011;3085;49.444;11.054;2023-06-10T07:34:19;5.60;;;3.90;;
6109;SDS011;3085;49.444;11.054;2023-06-10T07:36:45;7.50;;;4.80;;
6109;SDS011;3085;49.444;11.054;2023-06-10T07:39:14;10.10;;;3.90;;
6109;SDS011;3085;49.444;11.054;2023-06-10T07:41:40;7.67;;;4.50;;
6109;SDS011;3085;49.444;11.054;2023-06-10T07:44:07;14.53;;;4.57;;
6109;SDS011;3085;49.444;11.054;2023-06-10T07:46:34;8.60;;;4.03;;
6109;SDS011;3085;49.444;11.054;2023-06-10T07:49:00;7.30;;;4.87;;
6109;SDS011;3085;49.444;11.054;2023-06-10T07:51:27;6.27;;;3.53;;
6109;SDS011;3085;49.444;11.054;2023-06-10T07:53:54;8.13;;;5.00;;
6109;SDS011;3085;49.444;11.054;2023-06-10T07:56:22;5.50;;;4.17;;
6109;SDS011;3085;49.444;11.054;2023-06-10T07:58:50;5.47;;;4.27;;
6109;SDS011;3085;49.444;11.054;2023-06-10T08:01:17;6.67;;;4.30;;
6109;SDS011;3085;49.444;11.054;2023-06-10T08:03:43;4.27;;;3.10;;
6109;SDS011;3085;49.444;11.054;2023-06-10T08:06:10;5.57;;;4.10;;
6109;SDS011;3085;49.444;11.054;2023-06-10T08:08:37;5.53;;;3.67;;
6109;SDS011;3085;49.444;11.054;2023-06-10T08:11:06;6.73;;;4.30;;
6109;SDS011;3085;49.444;11.054;2023-06-10T08:13:35;6.47;;;4.10;;
6109;SDS011;3085;49.444;11.054;2023-06-10T08:16:02;5.20;;;3.73;;
6109;SDS011;3085;49.444;11.054;2023-06-10T08:18:29;5.70;;;3.50;;
6109;SDS011;3085;49.444;11.054;2023-06-10T08:20:55;3.33;;;2.93;;
6109;SDS011;3085;49.444;11.054;2023-06-10T08:23:22;4.40;;;3.03;;
6109;SDS011;3085;49.444;11.054;2023-06-10T08:25:49;5.03;;;3.27;;
6109;SDS011;3085;49.444;11.054;2023-06-10T08:28:16;7.73;;;3.40;;
6109;SDS011;3085;49.444;11.054;2023-06-10T08:30:44;11.33;;;3.50;;
6109;SDS011;3085;49.444;11.054;2023-06-10T08:33:11;5.83;;;3.37;;
6109;SDS011;3085;49.444;11.054;2023-06-10T08:35:38;4.20;;;3.33;;
6109;SDS011;3085;49.444;11.054;2023-06-10T08:38:05;6.10;;;3.67;;
6109;SDS011;3085;49.444;11.054;2023-06-10T08:40:32;4.03;;;3.33;;
6109;SDS011;3085;49.444;11.054;2023-06-10T08:43:00;5.30;;;3.50;;
6109;SDS011;3085;49.444;11.054;2023-06-10T08:45:31;6.00;;;3.70;;
6109;SDS011;3085;49.444;11.054;2023-06-10T08:48:02;3.87;;;2.50;;
6109;SDS011;3085;49.444;11.054;2023-06-10T08:50:31;4.23;;;2.50;;
6109;SDS011;3085;49.444;11.054;2023-06-10T08:53:01;4.00;;;3.17;;
6109;SDS011;3085;49.444;11.054;2023-06-10T08:55:31;8.70;;;3.27;;
6109;SDS011;3085;49.444;11.054;2023-06-10T08:57:59;3.73;;;2.90;;
6109;SDS011;3085;49.444;11.054;2023-06-10T09:00:28;2.43;;;2.13;;
6109;SDS011;3085;49.444;11.054;2023-06-10T09:02:55;5.03;;;2.83;;
6109;SDS011;3085;49.444;11.054;2023-06-10T09:05:24;4.10;;;3.00;;
6109;SDS011;3085;49.444;11.054;2023-06-10T09:07:53;3.90;;;2.63;;
6109;SDS011;3085;49.444;11.054;2023-06-10T09:10:20;3.20;;;2.57;;
6109;SDS011;3085;49.444;11.054;2023-06-10T09:12:46;7.50;;;3.30;;
6109;SDS011;3085;49.444;11.054;2023-06-10T09:15:13;11.13;;;6.40;;
6109;SDS011;3085;49.444;11.054;2023-06-10T09:17:42;10.30;;;2.40;;
6109;SDS011;3085;49.444;11.054;2023-06-10T09:20:10;4.93;;;2.30;;
6109;SDS011;3085;49.444;11.054;2023-06-10T09:22:38;6.13;;;2.97;;
6109;SDS011;3085;49.444;11.054;2023-06-10T09:25:06;4.00;;;2.70;;
6109;SDS011;3085;49.444;11.054;2023-06-10T09:27:40;3.80;;;2.67;;
6109;SDS011;3085;49.444;11.054;2023-06-10T09:30:11;4.50;;;2.90;;
6109;SDS011;3085;49.444;11.054;2023-06-10T09:32:51;5.20;;;2.90;;
6109;SDS011;3085;49.444;11.054;2023-06-10T09:35:21;10.73;;;3.07;;
6109;SDS011;3085;49.444;11.054;2023-06-10T09:37:51;3.70;;;2.90;;
6109;SDS011;3085;49.444;11.054;2023-06-10T09:40:18;5.33;;;2.77;;
6109;SDS011;3085;49.444;11.054;2023-06-10T09:42:45;4.27;;;2.70;;
6109;SDS011;3085;49.444;11.054;2023-06-10T09:45:14;5.33;;;3.47;;
6109;SDS011;3085;49.444;11.054;2023-06-10T09:47:40;4.67;;;3.00;;
6109;SDS011;3085;49.444;11.054;2023-06-10T09:50:07;6.13;;;3.50;;
6109;SDS011;3085;49.444;11.054;2023-06-10T09:52:36;3.40;;;2.40;;
6109;SDS011;3085;49.444;11.054;2023-06-10T09:55:07;4.17;;;3.00;;
6109;SDS011;3085;49.444;11.054;2023-06-10T09:57:35;4.10;;;3.27;;
6109;SDS011;3085;49.444;11.054;2023-06-10T10:00:04;5.30;;;3.03;;
6109;SDS011;3085;49.444;11.054;2023-06-10T10:02:32;3.20;;;2.80;;
6109;SDS011;3085;49.444;11.054;2023-06-10T10:05:09;3.50;;;3.07;;
6109;SDS011;3085;49.444;11.054;2023-06-10T10:07:36;4.40;;;3.00;;
6109;SDS011;3085;49.444;11.054;2023-06-10T10:10:03;5.57;;;3.80;;
6109;SDS011;3085;49.444;11.054;2023-06-10T10:12:31;7.90;;;2.73;;
6109;SDS011;3085;49.444;11.054;2023-06-10T10:14:58;3.80;;;2.43;;
6109;SDS011;3085;49.444;11.054;2023-06-10T10:17:25;3.53;;;2.90;;
6109;SDS011;3085;49.444;11.054;2023-06-10T10:19:53;4.97;;;3.10;;
6109;SDS011;3085;49.444;11.054;2023-06-10T10:22:29;4.40;;;2.90;;
6109;SDS011;3085;49.444;11.054;2023-06-10T10:25:01;3.83;;;2.93;;
6109;SDS011;3085;49.444;11.054;2023-06-10T10:27:35;4.10;;;3.37;;
6109;SDS011;3085;49.444;11.054;2023-06-10T10:30:07;6.50;;;3.90;;
6109;SDS011;3085;49.444;11.054;2023-06-10T10:32:38;4.10;;;3.40;;
6109;SDS011;3085;49.444;11.054;2023-06-10T10:35:09;4.00;;;3.17;;
6109;SDS011;3085;49.444;11.054;2023-06-10T10:37:42;4.77;;;3.40;;
6109;SDS011;3085;49.444;11.054;2023-06-10T10:40:10;5.20;;;3.90;;
6109;SDS011;3085;49.444;11.054;2023-06-10T10:42:39;4.10;;;2.90;;
6109;SDS011;3085;49.444;11.054;2023-06-10T10:45:07;4.63;;;3.10;;
6109;SDS011;3085;49.444;11.054;2023-06-10T10:47:36;2.70;;;2.30;;
6109;SDS011;3085;49.444;11.054;2023-06-10T10:50:12;6.17;;;2.50;;
6109;SDS011;3085;49.444;11.054;2023-06-10T10:52:46;4.10;;;3.23;;
6109;SDS011;3085;49.444;11.054;2023-06-10T10:55:18;4.33;;;2.80;;
6109;SDS011;3085;49.444;11.054;2023-06-10T10:57:54;4.30;;;3.20;;
6109;SDS011;3085;49.444;11.054;2023-06-10T11:00:26;4.67;;;3.30;;
6109;SDS011;3085;49.444;11.054;2023-06-10T11:02:57;5.03;;;2.80;;
6109;SDS011;3085;49.444;11.054;2023-06-10T11:05:31;5.20;;;3.30;;
6109;SDS011;3085;49.444;11.054;2023-06-10T11:08:02;3.57;;;2.93;;
6109;SDS011;3085;49.444;11.054;2023-06-10T11:10:29;5.97;;;3.67;;
6109;SDS011;3085;49.444;11.054;2023-06-10T11:12:58;6.40;;;3.30;;
6109;SDS011;3085;49.444;11.054;2023-06-10T11:15:26;4.77;;;3.40;;
6109;SDS011;3085;49.444;11.054;2023-06-10T11:18:06;4.20;;;3.30;;
6109;SDS011;3085;49.444;11.054;2023-06-10T11:20:53;4.40;;;3.00;;
6109;SDS011;3085;49.444;11.054;2023-06-10T11:26:15;7.40;;;3.43;;
6109;SDS011;3085;49.444;11.054;2023-06-10T11:31:48;4.90;;;3.30;;
6109;SDS011;3085;49.444;11.054;2023-06-10T11:34:21;3.00;;;2.67;;
6109;SDS011;3085;49.444;11.054;2023-06-10T11:36:49;4.90;;;3.67;;
6109;SDS011;3085;49.444;11.054;2023-06-10T11:39:18;4.50;;;2.90;;
6109;SDS011;3085;49.444;11.054;2023-06-10T11:41:45;4.03;;;2.93;;
6109;SDS011;3085;49.444;11.054;2023-06-10T11:44:14;4.50;;;2.37;;
6109;SDS011;3085;49.444;11.054;2023-06-10T11:46:41;2.70;;;2.50;;
6109;SDS011;3085;49.444;11.054;2023-06-10T11:49:08;3.87;;;2.37;;
6109;SDS011;3085;49.444;11.054;2023-06-10T11:51:36;5.20;;;2.60;;
6109;SDS011;3085;49.444;11.054;2023-06-10T11:54:05;3.10;;;2.70;;
6109;SDS011;3085;49.444;11.054;2023-06-10T11:56:32;4.03;;;2.87;;
6109;SDS011;3085;49.444;11.054;2023-06-10T11:58:59;4.63;;;3.50;;
6109;SDS011;3085;49.444;11.054;2023-06-10T12:01:31;4.60;;;3.13;;
6109;SDS011;3085;49.444;11.054;2023-06-10T12:03:59;5.60;;;3.50;;
6109;SDS011;3085;49.444;11.054;2023-06-10T12:06:28;3.47;;;2.63;;
6109;SDS011;3085;49.444;11.054;2023-06-10T12:09:04;4.57;;;3.93;;
6109;SDS011;3085;49.444;11.054;2023-06-10T12:11:31;6.40;;;2.80;;
6109;SDS011;3085;49.444;11.054;2023-06-10T12:13:58;5.10;;;3.07;;
6109;SDS011;3085;49.444;11.054;2023-06-10T12:16:24;5.50;;;3.27;;
6109;SDS011;3085;49.444;11.054;2023-06-10T12:19:00;5.50;;;3.10;;
6109;SDS011;3085;49.444;11.054;2023-06-10T12:21:27;3.43;;;2.57;;
6109;SDS011;3085;49.444;11.054;2023-06-10T12:24:01;2.43;;;2.20;;
6109;SDS011;3085;49.444;11.054;2023-06-10T12:26:36;3.77;;;2.40;;
6109;SDS011;3085;49.444;11.054;2023-06-10T12:29:17;5.10;;;3.10;;
6109;SDS011;3085;49.444;11.054;2023-06-10T12:31:52;3.70;;;2.60;;
6109;SDS011;3085;49.444;11.054;2023-06-10T12:34:21;4.90;;;2.97;;
6109;SDS011;3085;49.444;11.054;2023-06-10T12:36:55;5.00;;;3.20;;
6109;SDS011;3085;49.444;11.054;2023-06-10T12:39:21;5.63;;;2.47;;
6109;SDS011;3085;49.444;11.054;2023-06-10T12:41:48;3.33;;;2.33;;
6109;SDS011;3085;49.444;11.054;2023-06-10T12:44:15;4.50;;;3.20;;
6109;SDS011;3085;49.444;11.054;2023-06-10T12:46:42;3.33;;;2.63;;
6109;SDS011;3085;49.444;11.054;2023-06-10T12:49:18;2.53;;;2.27;;
6109;SDS011;3085;49.444;11.054;2023-06-10T12:51:46;3.00;;;2.43;;
6109;SDS011;3085;49.444;11.054;2023-06-10T12:54:13;3.93;;;2.37;;
6109;SDS011;3085;49.444;11.054;2023-06-10T12:56:40;4.30;;;2.83;;
6109;SDS011;3085;49.444;11.054;2023-06-10T12:59:07;3.50;;;2.67;;
6109;SDS011;3085;49.444;11.054;2023-06-10T13:01:34;3.27;;;2.60;;
6109;SDS011;3085;49.444;11.054;2023-06-10T13:04:00;3.40;;;2.90;;
6109;SDS011;3085;49.444;11.054;2023-06-10T13:06:29;3.97;;;2.83;;
6109;SDS011;3085;49.444;11.054;2023-06-10T13:08:57;4.20;;;2.70;;
6109;SDS011;3085;49.444;11.054;2023-06-10T13:11:24;4.93;;;2.73;;
6109;SDS011;3085;49.444;11.054;2023-06-10T13:13:50;3.10;;;2.37;;
6109;SDS011;3085;49.444;11.054;2023-06-10T13:16:17;3.50;;;2.77;;
6109;SDS011;3085;49.444;11.054;2023-06-10T13:18:44;2.80;;;2.40;;
6109;SDS011;3085;49.444;11.054;2023-06-10T13:21:11;2.80;;;2.50;;
6109;SDS011;3085;49.444;11.054;2023-06-10T13:23:39;2.87;;;2.10;;
6109;SDS011;3085;49.444;11.054;2023-06-10T13:26:06;3.50;;;2.60;;
6109;SDS011;3085;49.444;11.054;2023-06-10T13:28:32;2.70;;;2.23;;
6109;SDS011;3085;49.444;11.054;2023-06-10T13:30:59;3.03;;;2.60;;
6109;SDS011;3085;49.444;11.054;2023-06-10T13:33:26;4.17;;;2.83;;
6109;SDS011;3085;49.444;11.054;2023-06-10T13:35:53;3.43;;;2.30;;
6109;SDS011;3085;49.444;11.054;2023-06-10T13:40:48;4.27;;;2.50;;
6109;SDS011;3085;49.444;11.054;2023-06-10T13:43:16;4.60;;;2.77;;
6109;SDS011;3085;49.444;11.054;2023-06-10T13:45:42;5.03;;;2.50;;
6109;SDS011;3085;49.444;11.054;2023-06-10T13:48:10;3.50;;;2.57;;
6109;SDS011;3085;49.444;11.054;2023-06-10T13:50:37;3.80;;;2.50;;
6109;SDS011;3085;49.444;11.054;2023-06-10T13:53:03;3.40;;;2.20;;
6109;SDS011;3085;49.444;11.054;2023-06-10T13:55:30;3.20;;;2.30;;
6109;SDS011;3085;49.444;11.054;2023-06-10T13:57:59;5.87;;;2.93;;
6109;SDS011;3085;49.444;11.054;2023-06-10T14:00:25;3.60;;;2.43;;
6109;SDS011;3085;49.444;11.054;2023-06-10T14:02:52;2.67;;;1.70;;
6109;SDS011;3085;49.444;11.054;2023-06-10T14:05:19;2.73;;;2.13;;
6109;SDS011;3085;49.444;11.054;2023-06-10T14:07:46;3.97;;;2.57;;
6109;SDS011;3085;49.444;11.054;2023-06-10T14:10:13;3.77;;;2.80;;
6109;SDS011;3085;49.444;11.054;2023-06-10T14:12:42;3.47;;;2.10;;
6109;SDS011;3085;49.444;11.054;2023-06-10T14:15:13;7.23;;;2.60;;
6109;SDS011;3085;49.444;11.054;2023-06-10T14:17:47;3.30;;;2.37;;
6109;SDS011;3085;49.444;11.054;2023-06-10T14:20:14;3.40;;;2.47;;
6109;SDS011;3085;49.444;11.054;2023-06-10T14:22:42;2.63;;;2.07;;
6109;SDS011;3085;49.444;11.054;2023-06-10T14:25:09;3.00;;;2.43;;
6109;SDS011;3085;49.444;11.054;2023-06-10T14:27:36;3.10;;;2.30;;
6109;SDS011;3085;49.444;11.054;2023-06-10T14:30:03;3.10;;;2.33;;
6109;SDS011;3085;49.444;11.054;2023-06-10T14:32:32;2.93;;;2.13;;
6109;SDS011;3085;49.444;11.054;2023-06-10T14:35:00;4.37;;;2.50;;
6109;SDS011;3085;49.444;11.054;2023-06-10T14:37:28;2.80;;;2.37;;
6109;SDS011;3085;49.444;11.054;2023-06-10T14:39:55;2.30;;;2.10;;
6109;SDS011;3085;49.444;11.054;2023-06-10T14:42:22;3.13;;;2.30;;
6109;SDS011;3085;49.444;11.054;2023-06-10T14:44:49;3.20;;;2.60;;
6109;SDS011;3085;49.444;11.054;2023-06-10T14:47:16;3.30;;;2.37;;
6109;SDS011;3085;49.444;11.054;2023-06-10T14:49:44;3.17;;;1.80;;
6109;SDS011;3085;49.444;11.054;2023-06-10T14:52:11;2.60;;;2.00;;
6109;SDS011;3085;49.444;11.054;2023-06-10T14:54:38;2.20;;;2.00;;
6109;SDS011;3085;49.444;11.054;2023-06-10T14:57:05;3.90;;;2.07;;
6109;SDS011;3085;49.444;11.054;2023-06-10T14:59:32;3.47;;;2.50;;
6109;SDS011;3085;49.444;11.054;2023-06-10T15:02:00;3.80;;;2.20;;
6109;SDS011;3085;49.444;11.054;2023-06-10T15:04:27;2.63;;;1.70;;
6109;SDS011;3085;49.444;11.054;2023-06-10T15:06:55;2.60;;;2.00;;
6109;SDS011;3085;49.444;11.054;2023-06-10T15:09:22;3.07;;;2.20;;
6109;SDS011;3085;49.444;11.054;2023-06-10T15:11:50;2.53;;;2.20;;
6109;SDS011;3085;49.444;11.054;2023-06-10T15:14:17;3.67;;;2.30;;